createdAt,value
2023-04-26T00:01:31.087Z,100567.75
2023-04-26T00:03:58.079Z,100580.47
2023-04-26T00:06:27.419Z,100571.09
2023-04-26T00:08:54.802Z,100570.25
2023-04-26T00:11:22.080Z,100568.72
2023-04-26T00:13:48.897Z,100561.03
2023-04-26T00:16:16.628Z,100572.22
2023-04-26T00:18:43.458Z,100564.25
2023-04-26T00:21:10.712Z,100572.38
2023-04-26T00:23:37.952Z,100568.03
2023-04-26T00:26:04.895Z,100544.25
2023-04-26T00:28:31.692Z,100586.09
2023-04-26T00:30:58.514Z,100573.69
2023-04-26T00:33:26.052Z,100570.69
2023-04-26T00:35:52.921Z,100568.09
2023-04-26T00:38:19.720Z,100567.16
2023-04-26T00:40:46.569Z,100564.44
2023-04-26T00:43:13.356Z,100570.25
2023-04-26T00:45:40.380Z,100552.34
2023-04-26T00:48:07.302Z,100561.81
2023-04-26T00:50:34.178Z,100563.38
2023-04-26T00:53:01.094Z,100564.38
2023-04-26T00:55:27.955Z,100558.97
2023-04-26T00:57:55.479Z,100570.84
2023-04-26T01:00:22.845Z,100552.50
2023-04-26T01:02:49.861Z,100567.22
2023-04-26T01:05:16.835Z,100568.22
2023-04-26T01:07:43.737Z,100567.31
2023-04-26T01:10:10.991Z,100558.25
2023-04-26T01:12:39.078Z,100579.31
2023-04-26T01:15:06.375Z,100561.38
2023-04-26T01:17:33.953Z,100574.53
2023-04-26T01:20:00.910Z,100558.16
2023-04-26T01:22:28.754Z,100544.53
2023-04-26T01:24:55.632Z,100572.94
2023-04-26T01:27:22.738Z,100575.66
2023-04-26T01:29:49.612Z,100568.09
2023-04-26T01:32:16.472Z,100545.41
2023-04-26T01:34:43.277Z,100536.69
2023-04-26T01:37:10.149Z,100561.00
2023-04-26T01:39:36.957Z,100550.13
2023-04-26T01:42:04.929Z,100556.41
2023-04-26T01:44:31.948Z,100578.72
2023-04-26T01:46:58.769Z,100560.03
2023-04-26T01:49:25.533Z,100559.81
2023-04-26T01:51:52.370Z,100571.13
2023-04-26T01:54:19.167Z,100565.69
2023-04-26T01:56:45.993Z,100542.91
2023-04-26T01:59:12.851Z,100560.00
2023-04-26T02:01:41.898Z,100564.03
2023-04-26T02:04:08.830Z,100549.25
2023-04-26T02:06:35.824Z,100555.41
2023-04-26T02:09:02.606Z,100550.06
2023-04-26T02:11:29.410Z,100552.41
2023-04-26T02:13:56.462Z,100531.50
2023-04-26T02:16:23.212Z,100549.56
2023-04-26T02:18:50.358Z,100539.16
2023-04-26T02:21:20.642Z,100551.41
2023-04-26T02:23:47.522Z,100534.66
2023-04-26T02:26:14.594Z,100567.63
2023-04-26T02:28:42.084Z,100539.84
2023-04-26T02:31:09.109Z,100562.31
2023-04-26T02:33:36.136Z,100544.56
2023-04-26T02:36:06.489Z,100547.16
2023-04-26T02:38:35.133Z,100556.28
2023-04-26T02:41:02.479Z,100545.16
2023-04-26T02:43:29.534Z,100549.41
2023-04-26T02:45:58.756Z,100558.34
2023-04-26T02:48:25.775Z,100539.84
2023-04-26T02:50:52.680Z,100554.09
2023-04-26T02:53:19.472Z,100545.03
2023-04-26T02:55:46.262Z,100544.47
2023-04-26T02:58:13.294Z,100560.28
2023-04-26T03:00:45.601Z,100542.78
2023-04-26T03:03:12.570Z,100539.75
2023-04-26T03:05:39.503Z,100557.91
2023-04-26T03:08:06.269Z,100552.72
2023-04-26T03:10:33.055Z,100557.69
2023-04-26T03:12:59.836Z,100545.72
2023-04-26T03:15:26.772Z,100556.47
2023-04-26T03:17:53.666Z,100563.31
2023-04-26T03:20:21.013Z,100562.50
2023-04-26T03:22:47.740Z,100527.56
2023-04-26T03:25:15.816Z,100550.81
2023-04-26T03:27:42.618Z,100549.41
2023-04-26T03:30:09.801Z,100544.91
2023-04-26T03:32:36.585Z,100545.38
2023-04-26T03:35:03.422Z,100552.84
2023-04-26T03:37:30.138Z,100554.50
2023-04-26T03:39:56.980Z,100570.06
2023-04-26T03:42:23.943Z,100570.44
2023-04-26T03:44:50.715Z,100578.69
2023-04-26T03:47:17.581Z,100560.97
2023-04-26T03:49:44.334Z,100570.31
2023-04-26T03:52:11.197Z,100578.22
2023-04-26T03:54:37.980Z,100565.31
2023-04-26T03:57:04.767Z,100580.44
2023-04-26T03:59:31.757Z,100559.78
2023-04-26T04:01:58.588Z,100576.63
2023-04-26T04:04:25.685Z,100587.13
2023-04-26T04:06:52.637Z,100578.88
2023-04-26T04:09:19.417Z,100595.16
2023-04-26T04:11:47.554Z,100582.13
2023-04-26T04:14:14.518Z,100572.94
2023-04-26T04:16:41.247Z,100583.69
2023-04-26T04:19:08.812Z,100593.47
2023-04-26T04:21:35.574Z,100579.19
2023-04-26T04:24:02.334Z,100595.00
2023-04-26T04:26:29.174Z,100572.03
2023-04-26T04:28:57.580Z,100588.47
2023-04-26T04:31:25.014Z,100579.69
2023-04-26T04:33:51.760Z,100572.59
2023-04-26T04:36:18.580Z,100580.56
2023-04-26T04:38:45.398Z,100585.84
2023-04-26T04:41:12.355Z,100600.47
2023-04-26T04:43:39.160Z,100583.44
2023-04-26T04:46:06.014Z,100603.84
2023-04-26T04:48:33.698Z,100595.09
2023-04-26T04:51:00.692Z,100605.56
2023-04-26T04:53:27.539Z,100590.88
2023-04-26T04:55:54.356Z,100587.75
2023-04-26T04:58:22.584Z,100584.78
2023-04-26T05:00:50.410Z,100598.44
2023-04-26T05:03:17.330Z,100617.88
2023-04-26T05:05:44.252Z,100599.19
2023-04-26T05:08:11.104Z,100614.91
2023-04-26T05:10:37.973Z,100603.63
2023-04-26T05:13:06.116Z,100617.09
2023-04-26T05:15:33.153Z,100618.06
2023-04-26T05:18:00.074Z,100587.38
2023-04-26T05:20:27.115Z,100596.88
2023-04-26T05:22:53.855Z,100607.19
2023-04-26T05:25:22.420Z,100609.94
2023-04-26T05:27:49.562Z,100612.81
2023-04-26T05:30:16.749Z,100625.59
2023-04-26T05:32:43.535Z,100625.59
2023-04-26T05:35:10.270Z,100622.81
2023-04-26T05:37:37.046Z,100619.59
2023-04-26T05:40:04.791Z,100611.41
2023-04-26T05:42:31.594Z,100608.19
2023-04-26T05:44:59.165Z,100596.00
2023-04-26T05:47:26.521Z,100617.22
2023-04-26T05:49:53.345Z,100603.25
2023-04-26T05:52:20.141Z,100599.88
2023-04-26T05:54:46.970Z,100606.56
2023-04-26T05:57:13.893Z,100608.13
2023-04-26T05:59:41.340Z,100622.25
2023-04-26T06:02:08.239Z,100624.03
2023-04-26T06:04:35.631Z,100606.69
2023-04-26T06:07:02.464Z,100597.00
2023-04-26T06:09:31.687Z,100617.41
2023-04-26T06:11:58.583Z,100598.00
2023-04-26T06:14:30.533Z,100607.66
2023-04-26T06:16:58.131Z,100611.97
2023-04-26T06:19:25.044Z,100609.66
2023-04-26T06:21:54.996Z,100604.72
2023-04-26T06:24:21.849Z,100611.31
2023-04-26T06:26:48.610Z,100611.81
2023-04-26T06:29:15.522Z,100613.44
2023-04-26T06:31:42.415Z,100614.41
2023-04-26T06:34:09.384Z,100597.91
2023-04-26T06:36:36.110Z,100620.53
2023-04-26T06:39:03.274Z,100602.19
2023-04-26T06:41:30.031Z,100590.28
2023-04-26T06:43:56.913Z,100609.09
2023-04-26T06:48:52.865Z,100604.31
2023-04-26T06:51:19.583Z,100612.03
2023-04-26T06:53:46.445Z,100610.16
2023-04-26T06:56:13.194Z,100627.91
2023-04-26T06:58:39.971Z,100618.94
2023-04-26T07:01:08.667Z,100617.97
2023-04-26T07:03:35.553Z,100624.84
2023-04-26T07:06:02.488Z,100606.91
2023-04-26T07:08:29.251Z,100622.53
2023-04-26T07:10:56.005Z,100619.00
2023-04-26T07:13:22.739Z,100621.97
2023-04-26T07:15:49.559Z,100618.63
2023-04-26T07:18:16.397Z,100624.88
2023-04-26T07:20:43.176Z,100612.41
2023-04-26T07:23:09.981Z,100621.38
2023-04-26T07:25:36.724Z,100625.19
2023-04-26T07:28:03.493Z,100630.41
2023-04-26T07:30:32.565Z,100626.47
2023-04-26T07:32:59.444Z,100625.38
2023-04-26T07:35:26.344Z,100616.97
2023-04-26T07:37:53.184Z,100638.84
2023-04-26T07:40:22.732Z,100627.78
2023-04-26T07:42:49.507Z,100632.28
2023-04-26T07:45:16.365Z,100639.75
2023-04-26T07:47:43.158Z,100629.66
2023-04-26T07:50:10.780Z,100635.41
2023-04-26T07:52:37.636Z,100646.47
2023-04-26T07:55:04.697Z,100624.06
2023-04-26T07:57:31.460Z,100624.69
2023-04-26T07:59:58.337Z,100649.09
2023-04-26T08:02:33.234Z,100643.47
2023-04-26T08:05:04.235Z,100628.41
2023-04-26T08:07:31.216Z,100646.34
2023-04-26T08:09:58.144Z,100647.22
2023-04-26T08:12:24.908Z,100659.19
2023-04-26T08:14:51.738Z,100641.72
2023-04-26T08:17:18.497Z,100656.34
2023-04-26T08:19:45.221Z,100656.69
2023-04-26T08:22:12.054Z,100637.91
2023-04-26T08:24:38.820Z,100665.19
2023-04-26T08:27:06.382Z,100649.38
2023-04-26T08:29:33.098Z,100652.78
2023-04-26T08:32:00.165Z,100672.97
2023-04-26T08:34:28.395Z,100679.72
2023-04-26T08:36:55.259Z,100673.19
2023-04-26T08:39:22.051Z,100667.72
2023-04-26T08:41:55.053Z,100679.09
2023-04-26T08:44:26.760Z,100665.63
2023-04-26T08:47:08.438Z,100682.25
2023-04-26T08:49:41.821Z,100681.63
2023-04-26T08:52:12.440Z,100652.56
2023-04-26T08:54:39.873Z,100676.31
2023-04-26T08:57:10.394Z,100678.28
2023-04-26T08:59:37.640Z,100666.91
2023-04-26T09:02:07.504Z,100677.13
2023-04-26T09:04:34.643Z,100677.03
2023-04-26T09:07:03.243Z,100685.16
2023-04-26T09:09:41.564Z,100688.25
2023-04-26T09:12:08.482Z,100694.25
2023-04-26T09:14:35.237Z,100696.06
2023-04-26T09:17:02.004Z,100692.34
2023-04-26T09:19:44.217Z,100689.06
2023-04-26T09:22:11.300Z,100688.69
2023-04-26T09:24:50.760Z,100694.09
2023-04-26T09:27:17.735Z,100691.44
2023-04-26T09:30:17.482Z,100713.13
2023-04-26T09:32:58.296Z,100682.03
2023-04-26T09:35:26.962Z,100718.59
2023-04-26T09:38:02.983Z,100710.84
2023-04-26T09:40:34.473Z,100716.75
2023-04-26T09:43:03.419Z,100714.59
2023-04-26T09:45:31.254Z,100704.56
2023-04-26T09:48:22.738Z,100724.16
2023-04-26T09:50:52.579Z,100729.50
2023-04-26T09:53:34.449Z,100723.38
2023-04-26T09:56:09.909Z,100734.34
2023-04-26T09:58:37.976Z,100713.75
2023-04-26T10:01:05.725Z,100730.59
2023-04-26T10:03:34.664Z,100728.69
2023-04-26T10:06:01.614Z,100728.69
2023-04-26T10:08:28.436Z,100725.66
2023-04-26T10:10:55.570Z,100731.41
2023-04-26T10:13:22.323Z,100739.41
2023-04-26T10:15:49.222Z,100743.28
2023-04-26T10:18:16.062Z,100746.78
2023-04-26T10:20:44.996Z,100750.00
2023-04-26T10:23:21.753Z,100750.88
2023-04-26T10:25:49.159Z,100752.69
2023-04-26T10:28:18.235Z,100760.38
2023-04-26T10:30:55.539Z,100749.94
2023-04-26T10:33:23.926Z,100747.59
2023-04-26T10:36:08.165Z,100750.28
2023-04-26T10:38:39.661Z,100760.50
2023-04-26T10:41:29.377Z,100760.63
2023-04-26T10:43:56.505Z,100761.56
2023-04-26T10:46:43.261Z,100756.47
2023-04-26T10:49:17.196Z,100761.31
2023-04-26T10:52:23.169Z,100763.88
2023-04-26T10:54:53.977Z,100766.81
2023-04-26T10:57:21.662Z,100765.03
2023-04-26T11:00:08.953Z,100784.19
2023-04-26T11:02:54.195Z,100777.34
2023-04-26T11:05:58.525Z,100804.06
2023-04-26T11:08:26.994Z,100791.50
2023-04-26T11:11:10.322Z,100786.28
2023-04-26T11:13:41.456Z,100790.81
2023-04-26T11:16:08.947Z,100797.19
2023-04-26T11:18:36.598Z,100784.03
2023-04-26T11:21:03.616Z,100783.78
2023-04-26T11:23:31.054Z,100793.63
2023-04-26T11:26:04.645Z,100799.50
2023-04-26T11:28:34.310Z,100803.03
2023-04-26T11:31:04.934Z,100814.13
2023-04-26T11:33:34.380Z,100805.03
2023-04-26T11:36:01.651Z,100814.50
2023-04-26T11:38:28.929Z,100810.94
2023-04-26T11:40:56.792Z,100823.84
2023-04-26T11:43:29.337Z,100810.59
2023-04-26T11:45:59.472Z,100819.31
2023-04-26T11:48:26.313Z,100820.50
2023-04-26T11:50:53.168Z,100817.50
2023-04-26T11:53:19.943Z,100821.19
2023-04-26T11:55:46.782Z,100826.66
2023-04-26T11:58:14.040Z,100811.94
2023-04-26T12:01:00.535Z,100816.34
2023-04-26T12:03:35.715Z,100794.81
2023-04-26T12:06:02.725Z,100796.00
2023-04-26T12:08:29.686Z,100805.72
2023-04-26T12:11:01.309Z,100802.19
2023-04-26T12:13:29.266Z,100789.50
2023-04-26T12:15:56.414Z,100828.94
2023-04-26T12:18:30.087Z,100805.44
2023-04-26T12:20:59.116Z,100822.06
2023-04-26T12:23:26.677Z,100825.78
2023-04-26T12:25:55.104Z,100816.69
2023-04-26T12:28:22.252Z,100803.59
2023-04-26T12:30:49.465Z,100820.44
2023-04-26T12:33:17.887Z,100821.34
2023-04-26T12:35:45.176Z,100830.81
2023-04-26T12:38:12.540Z,100850.88
2023-04-26T12:40:39.524Z,100861.97
2023-04-26T12:43:06.355Z,100866.97
2023-04-26T12:45:33.153Z,100862.97
2023-04-26T12:48:00.097Z,100863.16
2023-04-26T12:50:27.732Z,100880.81
2023-04-26T12:52:55.264Z,100874.72
2023-04-26T12:55:22.145Z,100854.38
2023-04-26T12:57:48.964Z,100856.50
2023-04-26T13:00:17.723Z,100845.50
2023-04-26T13:02:44.908Z,100854.25
2023-04-26T13:05:12.945Z,100864.97
2023-04-26T13:07:41.975Z,100842.22
2023-04-26T13:10:12.930Z,100843.91
2023-04-26T13:12:40.453Z,100850.31
2023-04-26T13:15:08.188Z,100860.44
2023-04-26T13:17:36.393Z,100868.44
2023-04-26T13:20:04.765Z,100872.28
2023-04-26T13:22:31.709Z,100861.06
2023-04-26T13:25:00.621Z,100861.84
2023-04-26T13:27:29.868Z,100874.66
2023-04-26T13:29:58.682Z,100880.50
2023-04-26T13:32:25.694Z,100861.97
2023-04-26T13:34:53.372Z,100870.66
2023-04-26T13:37:21.472Z,100874.50
2023-04-26T13:39:48.474Z,100870.97
2023-04-26T13:42:16.503Z,100892.16
2023-04-26T13:44:43.551Z,100891.34
2023-04-26T13:47:10.464Z,100875.34
2023-04-26T13:49:38.164Z,100892.81
2023-04-26T13:52:05.113Z,100909.72
2023-04-26T13:54:32.026Z,100911.28
2023-04-26T13:56:59.096Z,100913.97
2023-04-26T13:59:26.838Z,100918.81
2023-04-26T14:01:56.354Z,100935.22
2023-04-26T14:04:25.851Z,100926.63
2023-04-26T14:06:53.001Z,100915.53
2023-04-26T14:09:19.800Z,100927.69
2023-04-26T14:11:51.489Z,100928.25
2023-04-26T14:14:20.998Z,100926.75
2023-04-26T14:16:47.801Z,100918.31
2023-04-26T14:19:17.329Z,100931.03
2023-04-26T14:21:44.257Z,100919.44
2023-04-26T14:24:11.748Z,100918.59
2023-04-26T14:26:38.708Z,100917.19
2023-04-26T14:29:05.515Z,100935.50
2023-04-26T14:31:32.820Z,100927.53
2023-04-26T14:33:59.725Z,100934.47
2023-04-26T14:36:26.788Z,100934.22
2023-04-26T14:38:53.660Z,100935.44
2023-04-26T14:41:20.589Z,100942.34
2023-04-26T14:43:47.498Z,100940.16
2023-04-26T14:46:14.554Z,100923.81
2023-04-26T14:48:43.780Z,100934.91
2023-04-26T14:51:11.256Z,100942.66
2023-04-26T14:53:38.806Z,100939.53
2023-04-26T14:56:07.753Z,100940.31
2023-04-26T14:58:34.840Z,100934.75
2023-04-26T15:01:02.656Z,100964.09
2023-04-26T15:03:29.811Z,100958.72
2023-04-26T15:05:56.932Z,100953.91
2023-04-26T15:08:23.810Z,100978.09
2023-04-26T15:10:51.490Z,100977.16
2023-04-26T15:13:18.781Z,100988.22
2023-04-26T15:15:45.785Z,100997.91
2023-04-26T15:18:12.621Z,100996.25
2023-04-26T15:20:40.939Z,100983.09
2023-04-26T15:23:08.563Z,101005.25
2023-04-26T15:25:36.990Z,101008.56
2023-04-26T15:28:04.180Z,100995.34
2023-04-26T15:30:30.945Z,100989.94
2023-04-26T15:32:57.877Z,100996.94
2023-04-26T15:35:25.283Z,100989.50
2023-04-26T15:37:54.111Z,100992.16
2023-04-26T15:40:21.893Z,101003.16
2023-04-26T15:42:49.952Z,100998.13
2023-04-26T15:45:17.043Z,100996.56
2023-04-26T15:47:43.997Z,101005.69
2023-04-26T15:50:11.376Z,100993.56
2023-04-26T15:52:39.459Z,100983.56
2023-04-26T15:55:10.577Z,100996.75
2023-04-26T15:57:37.885Z,100984.09
2023-04-26T16:00:08.722Z,100995.66
2023-04-26T16:02:36.154Z,101013.75
2023-04-26T16:05:04.890Z,101016.28
2023-04-26T16:07:32.125Z,100998.28
2023-04-26T16:09:58.907Z,101028.22
2023-04-26T16:12:25.925Z,101024.28
2023-04-26T16:14:52.778Z,101025.78
2023-04-26T16:17:19.627Z,101014.63
2023-04-26T16:19:46.726Z,101022.47
2023-04-26T16:22:13.537Z,101005.69
2023-04-26T16:24:40.487Z,101030.44
2023-04-26T16:27:07.332Z,101041.41
2023-04-26T16:29:34.130Z,101036.63
2023-04-26T16:32:01.068Z,101038.34
2023-04-26T16:34:28.320Z,101046.50
2023-04-26T16:36:55.124Z,101031.09
2023-04-26T16:39:21.981Z,101043.75
2023-04-26T16:41:48.905Z,101054.00
2023-04-26T16:44:16.887Z,101046.09
2023-04-26T16:46:43.777Z,101052.47
2023-04-26T16:49:11.025Z,101058.72
2023-04-26T16:51:38.486Z,101056.00
2023-04-26T16:54:05.543Z,101057.63
2023-04-26T16:56:32.518Z,101061.94
2023-04-26T16:58:59.634Z,101071.03
2023-04-26T17:01:26.682Z,101059.28
2023-04-26T17:03:53.985Z,101056.22
2023-04-26T17:06:21.146Z,101071.47
2023-04-26T17:08:48.167Z,101065.78
2023-04-26T17:11:17.982Z,101082.00
2023-04-26T17:13:45.076Z,101045.66
2023-04-26T17:16:12.259Z,101075.97
2023-04-26T17:18:39.162Z,101083.34
2023-04-26T17:21:06.159Z,101089.09
2023-04-26T17:23:33.944Z,101082.25
2023-04-26T17:26:04.456Z,101089.16
2023-04-26T17:28:33.155Z,101096.66
2023-04-26T17:31:00.305Z,101087.34
2023-04-26T17:33:27.223Z,101088.69
2023-04-26T17:35:54.007Z,101087.22
2023-04-26T17:38:20.855Z,101107.31
2023-04-26T17:40:52.659Z,101099.47
2023-04-26T17:43:19.852Z,101103.69
2023-04-26T17:45:46.978Z,101100.28
2023-04-26T17:48:13.915Z,101104.44
2023-04-26T17:50:41.020Z,101099.75
2023-04-26T17:53:08.384Z,101103.78
2023-04-26T17:55:35.170Z,101110.69
2023-04-26T17:58:01.961Z,101112.09
2023-04-26T18:00:28.703Z,101132.16
2023-04-26T18:02:57.674Z,101128.25
2023-04-26T18:05:25.174Z,101126.59
2023-04-26T18:07:52.139Z,101121.81
2023-04-26T18:10:18.976Z,101138.53
2023-04-26T18:12:45.762Z,101122.63
2023-04-26T18:15:13.774Z,101132.06
2023-04-26T18:17:41.302Z,101132.72
2023-04-26T18:20:08.558Z,101142.84
2023-04-26T18:22:35.456Z,101145.31
2023-04-26T18:25:02.194Z,101147.66
2023-04-26T18:27:28.859Z,101133.78
2023-04-26T18:29:55.555Z,101151.81
2023-04-26T18:32:22.272Z,101136.97
2023-04-26T18:34:48.981Z,101152.78
2023-04-26T18:37:15.843Z,101155.63
2023-04-26T18:39:42.625Z,101154.13
2023-04-26T18:42:09.529Z,101164.78
2023-04-26T18:44:36.356Z,101150.13
2023-04-26T18:47:03.168Z,101156.22
2023-04-26T18:49:30.038Z,101166.44
2023-04-26T18:51:57.441Z,101154.91
2023-04-26T18:54:24.372Z,101173.09
2023-04-26T18:56:51.160Z,101181.19
2023-04-26T18:59:17.941Z,101164.97
2023-04-26T19:01:44.840Z,101167.97
2023-04-26T19:04:12.248Z,101167.84
2023-04-26T19:06:41.519Z,101178.75
2023-04-26T19:09:11.804Z,101171.84
2023-04-26T19:11:38.860Z,101164.66
2023-04-26T19:14:05.759Z,101167.63
2023-04-26T19:16:32.669Z,101178.31
2023-04-26T19:18:59.529Z,101171.88
2023-04-26T19:21:26.779Z,101172.06
2023-04-26T19:23:53.556Z,101148.22
2023-04-26T19:26:20.559Z,101169.19
2023-04-26T19:28:47.471Z,101176.91
2023-04-26T19:31:14.325Z,101164.69
2023-04-26T19:33:41.604Z,101163.78
2023-04-26T19:36:09.425Z,101169.63
2023-04-26T19:38:36.232Z,101173.41
2023-04-26T19:41:03.021Z,101180.38
2023-04-26T19:43:29.813Z,101182.84
2023-04-26T19:45:56.688Z,101172.88
2023-04-26T19:48:23.451Z,101173.78
2023-04-26T19:50:50.225Z,101174.63
2023-04-26T19:53:16.964Z,101173.25
2023-04-26T19:55:44.062Z,101164.28
2023-04-26T19:58:11.106Z,101162.63
2023-04-26T20:00:39.238Z,101168.81
2023-04-26T20:03:06.701Z,101165.75
2023-04-26T20:05:34.013Z,101183.94
2023-04-26T20:08:01.473Z,101188.47
2023-04-26T20:10:32.204Z,101162.47
2023-04-26T20:12:59.463Z,101185.22
2023-04-26T20:15:27.522Z,101187.00
2023-04-26T20:17:54.452Z,101178.94
2023-04-26T20:20:21.396Z,101187.66
2023-04-26T20:22:48.202Z,101180.16
2023-04-26T20:25:14.961Z,101184.41
2023-04-26T20:27:41.813Z,101149.75
2023-04-26T20:30:09.134Z,101155.06
2023-04-26T20:32:35.938Z,101158.47
2023-04-26T20:35:02.812Z,101172.09
2023-04-26T20:37:29.639Z,101184.50
2023-04-26T20:39:57.502Z,101178.75
2023-04-26T20:42:24.991Z,101181.63
2023-04-26T20:44:52.348Z,101174.03
2023-04-26T20:47:19.400Z,101173.56
2023-04-26T20:49:46.171Z,101189.69
2023-04-26T20:52:13.149Z,101184.69
2023-04-26T20:54:39.970Z,101183.84
2023-04-26T20:57:06.739Z,101176.59
2023-04-26T20:59:33.470Z,101182.78
2023-04-26T21:02:00.324Z,101182.13
2023-04-26T21:04:27.374Z,101197.50
2023-04-26T21:06:54.356Z,101194.25
2023-04-26T21:09:21.631Z,101194.63
2023-04-26T21:11:48.430Z,101191.47
2023-04-26T21:14:15.180Z,101181.63
2023-04-26T21:16:41.977Z,101182.63
2023-04-26T21:19:08.964Z,101180.41
2023-04-26T21:21:35.883Z,101168.16
2023-04-26T21:24:04.042Z,101191.44
2023-04-26T21:26:31.068Z,101200.84
2023-04-26T21:28:57.900Z,101190.84
2023-04-26T21:31:24.782Z,101207.88
2023-04-26T21:33:51.526Z,101200.47
2023-04-26T21:36:18.388Z,101213.16
2023-04-26T21:38:45.125Z,101210.06
2023-04-26T21:41:11.961Z,101211.06
2023-04-26T21:43:38.793Z,101208.47
2023-04-26T21:46:06.651Z,101186.22
2023-04-26T21:48:33.471Z,101208.69
2023-04-26T21:51:00.414Z,101220.88
2023-04-26T21:53:27.317Z,101204.84
2023-04-26T21:55:54.156Z,101220.19
2023-04-26T21:58:21.580Z,101219.38
2023-04-26T22:00:48.961Z,101214.44
2023-04-26T22:03:16.485Z,101220.53
2023-04-26T22:05:43.537Z,101223.47
2023-04-26T22:08:10.459Z,101238.81
2023-04-26T22:10:37.272Z,101223.72
2023-04-26T22:13:05.346Z,101237.34
2023-04-26T22:15:32.215Z,101235.75
2023-04-26T22:17:59.034Z,101234.00
2023-04-26T22:20:26.590Z,101228.91
2023-04-26T22:22:53.904Z,101242.50
2023-04-26T22:25:21.136Z,101231.75
2023-04-26T22:27:48.437Z,101230.91
2023-04-26T22:30:25.537Z,101232.47
2023-04-26T22:32:54.962Z,101246.69
2023-04-26T22:35:22.399Z,101231.41
2023-04-26T22:37:49.299Z,101219.63
2023-04-26T22:40:16.290Z,101229.66
2023-04-26T22:42:43.426Z,101248.19
2023-04-26T22:45:10.879Z,101225.75
2023-04-26T22:47:37.886Z,101234.00
2023-04-26T22:50:05.157Z,101245.75
2023-04-26T22:52:32.424Z,101243.50
2023-04-26T22:55:00.087Z,101240.75
2023-04-26T22:57:28.263Z,101252.59
2023-04-26T22:59:54.989Z,101246.09
2023-04-26T23:02:22.031Z,101244.16
2023-04-26T23:04:48.942Z,101225.91
2023-04-26T23:07:16.557Z,101257.72
2023-04-26T23:09:43.427Z,101246.97
2023-04-26T23:12:10.238Z,101254.38
2023-04-26T23:14:37.900Z,101246.28
2023-04-26T23:17:05.573Z,101242.84
2023-04-26T23:19:33.256Z,101249.03
2023-04-26T23:22:00.283Z,101256.53
2023-04-26T23:24:27.148Z,101250.88
2023-04-26T23:26:53.950Z,101249.88
2023-04-26T23:29:20.762Z,101245.84
2023-04-26T23:31:47.640Z,101251.03
2023-04-26T23:34:14.453Z,101251.72
2023-04-26T23:36:41.251Z,101270.16
2023-04-26T23:39:08.904Z,101238.00
2023-04-26T23:41:35.999Z,101269.25
2023-04-26T23:44:02.867Z,101263.63
2023-04-26T23:46:29.689Z,101262.72
2023-04-26T23:48:56.461Z,101248.59
2023-04-26T23:51:23.222Z,101256.94
2023-04-26T23:53:49.981Z,101247.69
2023-04-26T23:56:16.755Z,101250.38
2023-04-26T23:58:43.494Z,101246.84
